Portada
METAR-TAF:

METAR-TAF

Aeroports :

Aeroport Internacional de Pequín

Pequín, Xina

latitud: 39-56N, longitud: 116-17E, altitud: 55 m

Observació

L'informe es va fer fa 40 minuts, a les 11:30 UTC
Vent 6 kt del Sud/Sud-Oest, variant entre Sud i Nord/Nord-Oest
Temperatura 14°C
Humitat 24%
Pressió 1021 hPa
Visibilitat 10 km o més
sense núvols per sota de 1500 mi sense presència de cumulonimbus.

METAR: ZBAA 231130Z 21003MPS 170V340 CAVOK 14/M06 Q1021 NOSIG

Hora: 20:10 (12:10 UTC)

Pronòstic

L'informe es va fer fa 3 hores i 8 minuts, a les 09:02 UTC
Pronòstic vàlid del 23 a les 12 UTC al 24 a les 12 UTC
Vent 8 kt del Nord
Visibilitat 10 km o més
sense núvols per sota de 1500 mi sense presència de cumulonimbus.

TAF: ZBAA 230902Z 2312/2412 35004MPS CAVOK TX19/2407Z TN01/2321Z

Observacions i pronòstics meteorològics de més de 4000 aeroports (METAR i TAF).

Les estacions disponibles són els punts grocs i vermells al mapa.

Posi el ratolí al punt desitjat per veure el nom de l'estació.

Feu clic per veure les observacions i els pronòstics meteorològics.

Per canviar el mapa: feu clic els botons verds amb una creu de color negre per apropar; al botó verd amb un guió per allunyar la imatge; o en les fletxes verdes per a mapes adjacents.


METAR-TAF: